createdAt,value
2023-02-26T00:01:26.209Z,-0.83
2023-02-26T00:03:57.932Z,-0.88
2023-02-26T00:06:26.495Z,-0.80
2023-02-26T00:08:54.385Z,-0.86
2023-02-26T00:11:21.834Z,-0.83
2023-02-26T00:13:49.187Z,-0.91
2023-02-26T00:16:35.029Z,-0.81
2023-02-26T00:19:05.618Z,-0.75
2023-02-26T00:21:33.298Z,-0.59
2023-02-26T00:24:03.057Z,-0.53
2023-02-26T00:26:32.156Z,-0.59
2023-02-26T00:28:59.449Z,-0.49
2023-02-26T00:31:26.939Z,-0.42
2023-02-26T00:33:56.189Z,-0.65
2023-02-26T00:36:41.257Z,-0.88
2023-02-26T00:39:41.174Z,-0.91
2023-02-26T00:42:08.424Z,-0.80
2023-02-26T00:44:35.616Z,-0.82
2023-02-26T00:47:29.062Z,-0.77
2023-02-26T00:50:13.837Z,-0.78
2023-02-26T00:52:43.297Z,-0.81
2023-02-26T00:55:10.139Z,-0.74
2023-02-26T00:57:36.922Z,-0.69
2023-02-26T01:00:07.902Z,-0.69
2023-02-26T01:02:36.324Z,-0.65
2023-02-26T01:05:04.502Z,-0.58
2023-02-26T01:07:41.194Z,-0.69
2023-02-26T01:10:08.678Z,-0.67
2023-02-26T01:15:07.009Z,-0.68
2023-02-26T01:17:41.141Z,-0.67
2023-02-26T01:20:21.528Z,-0.58
2023-02-26T01:22:59.783Z,-0.63
2023-02-26T01:25:41.541Z,-0.66
2023-02-26T01:28:08.916Z,-0.64
2023-02-26T01:30:36.309Z,-0.61
2023-02-26T01:33:09.879Z,-0.62
2023-02-26T01:35:41.333Z,-0.64
2023-02-26T01:38:28.618Z,-0.69
2023-02-26T01:41:26.116Z,-0.74
2023-02-26T01:44:06.586Z,-0.89
2023-02-26T01:46:41.259Z,-1.06
2023-02-26T01:49:14.038Z,-1.19
2023-02-26T01:51:47.742Z,-1.30
2023-02-26T01:54:16.763Z,-1.17
2023-02-26T01:56:46.592Z,-1.35
2023-02-26T01:59:16.757Z,-1.37
2023-02-26T02:01:43.942Z,-1.49
2023-02-26T02:04:15.228Z,-1.51
2023-02-26T02:06:43.430Z,-1.49
2023-02-26T02:09:10.921Z,-1.42
2023-02-26T02:11:41.524Z,-1.39
2023-02-26T02:14:11.064Z,-1.52
2023-02-26T02:16:41.373Z,-1.52
2023-02-26T02:19:41.182Z,-1.47
2023-02-26T02:22:41.840Z,-1.56
2023-02-26T02:25:21.696Z,-1.59
2023-02-26T02:27:51.246Z,-1.69
2023-02-26T02:30:41.232Z,-1.81
2023-02-26T02:33:15.378Z,-1.66
2023-02-26T02:35:47.255Z,-1.80
2023-02-26T02:38:37.609Z,-1.85
2023-02-26T02:41:11.790Z,-1.71
2023-02-26T02:43:41.841Z,-1.84
2023-02-26T02:46:13.251Z,-1.94
2023-02-26T02:48:41.262Z,-1.80
2023-02-26T02:51:14.423Z,-1.87
2023-02-26T02:53:49.169Z,-1.92
2023-02-26T02:56:41.274Z,-2.11
2023-02-26T02:59:19.208Z,-2.16
2023-02-26T03:01:50.302Z,-1.97
2023-02-26T03:04:17.819Z,-1.98
2023-02-26T03:06:47.237Z,-2.12
2023-02-26T03:09:13.970Z,-1.90
2023-02-26T03:11:40.761Z,-1.78
2023-02-26T03:14:10.475Z,-1.99
2023-02-26T03:16:41.306Z,-2.03
2023-02-26T03:19:31.270Z,-2.09
2023-02-26T03:22:32.700Z,-1.94
2023-02-26T03:25:05.376Z,-1.87
2023-02-26T03:27:41.646Z,-1.80
2023-02-26T03:30:13.122Z,-1.72
2023-02-26T03:32:41.423Z,-1.59
2023-02-26T03:35:14.011Z,-1.56
2023-02-26T03:37:49.483Z,-1.61
2023-02-26T03:40:25.927Z,-1.60
2023-02-26T03:43:22.299Z,-1.62
2023-02-26T03:45:53.247Z,-1.65
2023-02-26T03:48:24.961Z,-1.61
2023-02-26T03:50:57.176Z,-1.62
2023-02-26T03:53:38.884Z,-1.64
2023-02-26T03:56:13.678Z,-1.62
2023-02-26T03:58:41.388Z,-1.66
2023-02-26T04:01:13.959Z,-1.64
2023-02-26T04:03:44.465Z,-1.65
2023-02-26T04:06:12.068Z,-1.74
2023-02-26T04:08:38.807Z,-1.77
2023-02-26T04:11:12.421Z,-1.80
2023-02-26T04:13:41.688Z,-1.74
2023-02-26T04:16:08.424Z,-1.77
2023-02-26T04:18:35.174Z,-1.96
2023-02-26T04:21:02.012Z,-1.76
2023-02-26T04:23:29.517Z,-1.93
2023-02-26T04:25:56.712Z,-1.96
2023-02-26T04:28:23.398Z,-2.06
2023-02-26T04:30:50.570Z,-2.05
2023-02-26T04:33:17.362Z,-2.05
2023-02-26T04:35:44.764Z,-2.11
2023-02-26T04:38:11.543Z,-2.13
2023-02-26T04:40:38.269Z,-2.11
2023-02-26T04:43:04.974Z,-2.13
2023-02-26T04:45:31.723Z,-2.19
2023-02-26T04:47:58.384Z,-2.19
2023-02-26T04:50:25.433Z,-2.29
2023-02-26T04:52:52.313Z,-2.20
2023-02-26T04:55:19.180Z,-2.18
2023-02-26T04:57:46.046Z,-2.18
2023-02-26T05:00:13.339Z,-2.16
2023-02-26T05:05:07.368Z,-2.12
2023-02-26T05:07:34.182Z,-2.09
2023-02-26T05:10:00.994Z,-2.13
2023-02-26T05:12:27.702Z,-2.13
2023-02-26T05:14:54.545Z,-2.07
2023-02-26T05:17:21.224Z,-2.05
2023-02-26T05:19:47.890Z,-2.00
2023-02-26T05:22:14.649Z,-2.11
2023-02-26T05:24:41.826Z,-1.99
2023-02-26T05:27:08.472Z,-1.96
2023-02-26T05:29:35.368Z,-1.92
2023-02-26T05:32:02.826Z,-1.83
2023-02-26T05:34:29.550Z,-1.83
2023-02-26T05:36:56.271Z,-1.69
2023-02-26T05:39:23.609Z,-1.62
2023-02-26T05:41:52.074Z,-1.64
2023-02-26T05:44:18.901Z,-1.64
2023-02-26T05:46:46.273Z,-1.67
2023-02-26T05:49:13.303Z,-1.62
2023-02-26T05:54:06.343Z,-1.60
2023-02-26T05:56:33.410Z,-1.65
2023-02-26T05:59:00.150Z,-1.53
2023-02-26T06:01:27.169Z,-1.60
2023-02-26T06:03:54.096Z,-1.60
2023-02-26T06:06:21.932Z,-1.56
2023-02-26T06:08:48.773Z,-1.60
2023-02-26T06:11:15.442Z,-1.56
2023-02-26T06:13:42.367Z,-1.58
2023-02-26T06:16:09.111Z,-1.55
2023-02-26T06:18:35.828Z,-1.58
2023-02-26T06:21:03.953Z,-1.50
2023-02-26T06:23:30.920Z,-1.39
2023-02-26T06:26:00.083Z,-1.56
2023-02-26T06:28:27.223Z,-1.48
2023-02-26T06:30:54.235Z,-1.42
2023-02-26T06:33:21.313Z,-1.48
2023-02-26T06:35:48.257Z,-1.43
2023-02-26T06:38:15.044Z,-1.38
2023-02-26T06:40:42.106Z,-1.32
2023-02-26T06:43:08.855Z,-1.35
2023-02-26T06:45:36.331Z,-1.30
2023-02-26T06:48:03.255Z,-1.24
2023-02-26T06:50:29.925Z,-1.32
2023-02-26T06:52:57.022Z,-1.30
2023-02-26T06:55:27.117Z,-1.26
2023-02-26T06:57:57.967Z,-1.30
2023-02-26T07:00:25.979Z,-1.31
2023-02-26T07:02:53.350Z,-1.27
2023-02-26T07:05:20.314Z,-1.19
2023-02-26T07:07:47.087Z,-1.17
2023-02-26T07:10:14.097Z,-1.13
2023-02-26T07:12:40.830Z,-0.93
2023-02-26T07:15:14.518Z,-0.81
2023-02-26T07:17:41.538Z,-0.58
2023-02-26T07:20:10.679Z,-0.49
2023-02-26T07:22:38.549Z,-0.61
2023-02-26T07:25:06.357Z,-0.59
2023-02-26T07:27:34.008Z,-0.57
2023-02-26T07:30:01.728Z,-0.60
2023-02-26T07:32:28.534Z,-0.53
2023-02-26T07:34:55.630Z,-0.42
2023-02-26T07:37:22.418Z,-0.18
2023-02-26T07:39:49.323Z,-0.04
2023-02-26T07:42:17.817Z,-0.23
2023-02-26T07:44:44.914Z,0.20
2023-02-26T07:47:12.289Z,0.00
2023-02-26T07:52:08.412Z,-0.40
2023-02-26T07:54:36.642Z,-0.45
2023-02-26T07:57:03.566Z,-0.48
2023-02-26T07:59:30.764Z,-0.32
2023-02-26T08:01:57.433Z,-0.34
2023-02-26T08:04:24.570Z,-0.37
2023-02-26T08:06:51.321Z,0.23
2023-02-26T08:09:18.155Z,-0.25
2023-02-26T08:11:44.907Z,-0.45
2023-02-26T08:14:12.334Z,-0.07
2023-02-26T08:16:39.066Z,0.13
2023-02-26T08:19:06.308Z,0.28
2023-02-26T08:21:35.121Z,-0.06
2023-02-26T08:24:02.063Z,0.07
2023-02-26T08:26:29.047Z,0.46
2023-02-26T08:28:55.955Z,0.42
2023-02-26T08:31:23.119Z,0.47
2023-02-26T08:33:50.480Z,0.51
2023-02-26T08:36:17.145Z,0.31
2023-02-26T08:38:47.512Z,0.66
2023-02-26T08:41:14.791Z,0.34
2023-02-26T08:43:41.473Z,0.66
2023-02-26T08:46:08.147Z,0.48
2023-02-26T08:48:34.816Z,0.25
2023-02-26T08:51:01.565Z,0.18
2023-02-26T08:53:28.224Z,0.17
2023-02-26T08:55:54.985Z,0.26
2023-02-26T08:58:21.785Z,0.43
2023-02-26T09:00:48.491Z,0.25
2023-02-26T09:03:15.242Z,0.16
2023-02-26T09:05:42.092Z,0.30
2023-02-26T09:08:09.710Z,0.64
2023-02-26T09:10:36.427Z,0.57
2023-02-26T09:13:03.324Z,1.02
2023-02-26T09:15:30.113Z,1.30
2023-02-26T09:17:56.902Z,1.22
2023-02-26T09:20:23.815Z,1.20
2023-02-26T09:22:50.627Z,1.32
2023-02-26T09:25:19.186Z,1.23
2023-02-26T09:27:45.861Z,0.90
2023-02-26T09:30:16.593Z,0.70
2023-02-26T09:32:43.682Z,0.87
2023-02-26T09:35:11.914Z,1.13
2023-02-26T09:37:38.794Z,0.96
2023-02-26T09:40:06.260Z,1.21
2023-02-26T09:42:41.457Z,0.93
2023-02-26T09:45:19.365Z,1.05
2023-02-26T09:47:53.372Z,0.69
2023-02-26T09:50:25.983Z,0.87
2023-02-26T09:53:12.237Z,1.06
2023-02-26T09:55:41.729Z,1.05
2023-02-26T09:58:33.745Z,1.12
2023-02-26T10:01:13.931Z,1.41
2023-02-26T10:03:42.395Z,1.99
2023-02-26T10:06:11.899Z,2.51
2023-02-26T10:08:41.644Z,2.46
2023-02-26T10:11:18.793Z,2.36
2023-02-26T10:13:57.762Z,2.09
2023-02-26T10:16:31.766Z,1.85
2023-02-26T10:19:17.353Z,1.61
2023-02-26T10:21:57.229Z,1.74
2023-02-26T10:24:29.530Z,2.08
2023-02-26T10:27:10.995Z,1.65
2023-02-26T10:29:43.777Z,1.53
2023-02-26T10:32:33.642Z,1.60
2023-02-26T10:35:10.041Z,1.48
2023-02-26T10:37:41.430Z,1.65
2023-02-26T10:40:36.014Z,1.58
2023-02-26T10:43:27.362Z,1.57
2023-02-26T10:46:23.269Z,1.82
2023-02-26T10:49:03.086Z,1.83
2023-02-26T10:51:36.236Z,1.97
2023-02-26T10:54:17.098Z,1.88
2023-02-26T10:56:43.821Z,1.86
2023-02-26T10:59:10.669Z,1.75
2023-02-26T11:01:37.935Z,1.60
2023-02-26T11:04:12.618Z,1.64
2023-02-26T11:06:41.476Z,1.85
2023-02-26T11:09:22.606Z,1.65
2023-02-26T11:11:54.612Z,1.73
2023-02-26T11:14:25.425Z,2.40
2023-02-26T11:16:56.653Z,2.23
2023-02-26T11:19:36.737Z,1.87
2023-02-26T11:22:05.535Z,2.42
2023-02-26T11:24:41.624Z,2.30
2023-02-26T11:27:18.269Z,2.32
2023-02-26T11:29:49.585Z,2.46
2023-02-26T11:32:22.614Z,1.95
2023-02-26T11:34:51.289Z,2.56
2023-02-26T11:37:21.417Z,3.68
2023-02-26T11:39:55.442Z,3.03
2023-02-26T11:42:22.252Z,2.99
2023-02-26T11:44:51.105Z,3.54
2023-02-26T11:47:29.265Z,3.81
2023-02-26T11:50:01.629Z,4.54
2023-02-26T11:52:33.494Z,5.18
2023-02-26T11:55:06.861Z,6.58
2023-02-26T11:57:33.825Z,4.78
2023-02-26T12:00:01.799Z,3.58
2023-02-26T12:02:35.584Z,2.99
2023-02-26T12:05:06.069Z,2.44
2023-02-26T12:07:32.882Z,2.14
2023-02-26T12:09:59.670Z,2.36
2023-02-26T12:12:41.539Z,2.18
2023-02-26T12:15:41.632Z,1.95
2023-02-26T12:18:25.507Z,2.01
2023-02-26T12:21:31.935Z,2.02
2023-02-26T12:24:08.155Z,2.15
2023-02-26T12:26:40.573Z,2.07
2023-02-26T12:29:15.092Z,2.04
2023-02-26T12:32:02.998Z,1.95
2023-02-26T12:34:38.365Z,1.88
2023-02-26T12:37:26.715Z,1.74
2023-02-26T12:40:11.933Z,1.84
2023-02-26T12:42:41.528Z,1.90
2023-02-26T12:45:13.996Z,1.95
2023-02-26T12:47:40.609Z,2.12
2023-02-26T12:50:28.389Z,1.86
2023-02-26T12:53:01.403Z,1.86
2023-02-26T12:55:41.763Z,2.37
2023-02-26T12:58:41.708Z,2.34
2023-02-26T13:01:35.836Z,2.50
2023-02-26T13:04:34.060Z,2.21
2023-02-26T13:07:10.939Z,2.23
2023-02-26T13:12:20.784Z,1.97
2023-02-26T13:15:15.906Z,2.01
2023-02-26T13:18:01.490Z,2.10
2023-02-26T13:20:29.958Z,2.15
2023-02-26T13:23:03.683Z,2.15
2023-02-26T13:25:41.619Z,2.13
2023-02-26T13:28:21.443Z,2.40
2023-02-26T13:30:56.119Z,2.74
2023-02-26T13:33:31.282Z,2.56
2023-02-26T13:36:01.702Z,2.60
2023-02-26T13:38:41.646Z,2.32
2023-02-26T13:41:22.665Z,2.76
2023-02-26T13:44:17.676Z,2.52
2023-02-26T13:47:16.887Z,2.14
2023-02-26T13:49:49.222Z,1.99
2023-02-26T13:52:25.179Z,2.14
2023-02-26T13:54:51.912Z,2.16
2023-02-26T13:57:37.104Z,2.10
2023-02-26T14:00:25.785Z,2.22
2023-02-26T14:03:12.445Z,1.88
2023-02-26T14:05:41.590Z,1.92
2023-02-26T14:08:20.024Z,2.96
2023-02-26T14:10:59.603Z,2.74
2023-02-26T14:16:22.545Z,2.77
2023-02-26T14:18:51.901Z,2.58
2023-02-26T14:21:27.920Z,2.80
2023-02-26T14:24:00.784Z,2.25
2023-02-26T14:26:32.189Z,3.02
2023-02-26T14:29:15.555Z,5.44
2023-02-26T14:32:00.939Z,3.94
2023-02-26T14:34:41.751Z,3.22
2023-02-26T14:37:15.382Z,3.20
2023-02-26T14:39:59.285Z,2.46
2023-02-26T14:42:41.865Z,2.92
2023-02-26T14:45:09.024Z,5.88
2023-02-26T14:47:38.301Z,6.08
2023-02-26T14:50:07.545Z,6.94
2023-02-26T14:52:41.717Z,4.39
2023-02-26T14:55:31.289Z,3.15
2023-02-26T14:58:20.013Z,3.00
2023-02-26T15:00:55.713Z,2.41
2023-02-26T15:03:41.616Z,4.00
2023-02-26T15:06:11.170Z,3.66
2023-02-26T15:08:41.814Z,3.25
2023-02-26T15:11:44.688Z,2.55
2023-02-26T15:14:33.751Z,2.69
2023-02-26T15:17:13.026Z,2.33
2023-02-26T15:19:40.651Z,2.44
2023-02-26T15:22:36.578Z,2.26
2023-02-26T15:25:10.535Z,2.04
2023-02-26T15:30:07.040Z,1.81
2023-02-26T15:35:22.336Z,1.82
2023-02-26T15:37:58.201Z,2.78
2023-02-26T15:40:29.253Z,5.71
2023-02-26T15:42:58.907Z,3.13
2023-02-26T15:45:38.167Z,3.08
2023-02-26T15:48:08.364Z,3.94
2023-02-26T15:50:41.639Z,4.29
2023-02-26T15:53:13.275Z,3.19
2023-02-26T15:55:41.687Z,3.28
2023-02-26T15:58:08.938Z,2.37
2023-02-26T16:00:37.513Z,2.24
2023-02-26T16:03:04.830Z,2.43
2023-02-26T16:05:35.924Z,2.09
2023-02-26T16:08:07.639Z,1.80
2023-02-26T16:10:47.892Z,1.80
2023-02-26T16:13:31.145Z,2.19
2023-02-26T16:16:22.107Z,1.77
2023-02-26T16:18:49.076Z,1.54
2023-02-26T16:21:24.999Z,1.39
2023-02-26T16:23:58.389Z,1.41
2023-02-26T16:26:33.088Z,1.33
2023-02-26T16:29:07.319Z,1.27
2023-02-26T16:31:35.349Z,1.02
2023-02-26T16:34:24.148Z,1.05
2023-02-26T16:36:52.037Z,0.97
2023-02-26T16:39:27.856Z,0.83
2023-02-26T16:42:42.879Z,0.86
2023-02-26T16:45:38.297Z,0.81
2023-02-26T16:48:18.668Z,0.79
2023-02-26T16:50:55.792Z,0.82
2023-02-26T16:53:30.028Z,0.75
2023-02-26T16:55:57.281Z,0.71
2023-02-26T16:58:25.205Z,0.76
2023-02-26T17:01:03.506Z,0.77
2023-02-26T17:03:30.702Z,0.79
2023-02-26T17:06:03.822Z,0.70
2023-02-26T17:11:16.266Z,0.50
2023-02-26T17:13:43.001Z,0.50
2023-02-26T17:16:16.132Z,0.33
2023-02-26T17:18:43.304Z,0.28
2023-02-26T17:21:10.621Z,0.22
2023-02-26T17:23:38.972Z,0.09
2023-02-26T17:26:07.354Z,0.06
2023-02-26T17:31:06.614Z,-0.02
2023-02-26T17:36:07.804Z,-0.01
2023-02-26T17:38:34.506Z,-0.12
2023-02-26T17:41:01.242Z,-0.11
2023-02-26T17:43:29.224Z,-0.22
2023-02-26T17:45:56.296Z,-0.21
2023-02-26T17:48:24.470Z,-0.35
2023-02-26T17:50:56.403Z,-0.35
2023-02-26T17:53:29.695Z,-0.32
2023-02-26T17:56:00.546Z,-0.44
2023-02-26T17:58:29.813Z,-0.45
2023-02-26T18:00:57.311Z,-0.39
2023-02-26T18:03:24.225Z,-0.43
2023-02-26T18:05:56.001Z,-0.46
2023-02-26T18:08:32.583Z,-0.44
2023-02-26T18:11:01.931Z,-0.42
2023-02-26T18:13:30.229Z,-0.46
2023-02-26T18:15:59.164Z,-0.61
2023-02-26T18:18:27.005Z,-0.59
2023-02-26T18:20:54.321Z,-0.59
2023-02-26T18:23:21.434Z,-0.65
2023-02-26T18:25:53.262Z,-0.72
2023-02-26T18:28:27.803Z,-0.80
2023-02-26T18:30:56.161Z,-0.76
2023-02-26T18:33:24.190Z,-0.67
2023-02-26T18:35:56.845Z,-0.74
2023-02-26T18:38:26.175Z,-0.84
2023-02-26T18:40:54.032Z,-0.87
2023-02-26T18:43:21.360Z,-0.85
2023-02-26T18:45:50.079Z,-0.88
2023-02-26T18:48:19.989Z,-0.89
2023-02-26T18:50:49.181Z,-1.06
2023-02-26T18:53:17.806Z,-0.96
2023-02-26T18:55:44.833Z,-1.02
2023-02-26T18:58:12.016Z,-0.99
2023-02-26T19:03:05.994Z,-1.08
2023-02-26T19:05:32.874Z,-1.16
2023-02-26T19:08:00.023Z,-1.14
2023-02-26T19:10:30.271Z,-1.10
2023-02-26T19:12:56.962Z,-0.99
2023-02-26T19:15:25.028Z,-1.25
2023-02-26T19:17:57.704Z,-1.11
2023-02-26T19:20:24.495Z,-1.11
2023-02-26T19:22:52.056Z,-1.04
2023-02-26T19:25:24.438Z,-1.18
2023-02-26T19:27:54.254Z,-1.16
2023-02-26T19:30:23.187Z,-1.12
2023-02-26T19:32:52.086Z,-1.11
2023-02-26T19:35:19.799Z,-1.12
2023-02-26T19:37:46.544Z,-1.33
2023-02-26T19:40:18.005Z,-1.30
2023-02-26T19:42:46.135Z,-1.23
2023-02-26T19:45:15.129Z,-1.17
2023-02-26T19:47:41.827Z,-1.34
2023-02-26T19:50:12.546Z,-1.39
2023-02-26T19:52:39.278Z,-1.34
2023-02-26T19:55:07.958Z,-1.42
2023-02-26T19:57:34.796Z,-1.61
2023-02-26T20:00:03.729Z,-1.56
2023-02-26T20:02:30.734Z,-1.49
2023-02-26T20:04:58.113Z,-1.30
2023-02-26T20:07:26.410Z,-1.52
2023-02-26T20:09:54.015Z,-1.39
2023-02-26T20:12:24.902Z,-1.40
2023-02-26T20:14:51.589Z,-1.38
2023-02-26T20:17:18.412Z,-1.55
2023-02-26T20:19:45.211Z,-1.36
2023-02-26T20:22:11.946Z,-1.56
2023-02-26T20:24:41.868Z,-1.38
2023-02-26T20:27:09.506Z,-1.70
2023-02-26T20:29:38.688Z,-1.64
2023-02-26T20:32:05.906Z,-1.49
2023-02-26T20:34:33.029Z,-1.33
2023-02-26T20:36:59.729Z,-1.33
2023-02-26T20:39:26.990Z,-1.27
2023-02-26T20:41:53.733Z,-1.31
2023-02-26T20:44:21.563Z,-1.50
2023-02-26T20:46:48.479Z,-1.57
2023-02-26T20:49:15.812Z,-1.59
2023-02-26T20:51:43.277Z,-1.66
2023-02-26T20:54:14.595Z,-1.51
2023-02-26T20:56:41.564Z,-1.52
2023-02-26T20:59:08.281Z,-1.74
2023-02-26T21:01:37.591Z,-1.67
2023-02-26T21:04:08.234Z,-1.47
2023-02-26T21:06:37.721Z,-1.51
2023-02-26T21:09:06.055Z,-1.49
2023-02-26T21:11:35.246Z,-1.55
2023-02-26T21:14:05.813Z,-1.71
2023-02-26T21:16:32.980Z,-1.74
2023-02-26T21:19:06.511Z,-1.53
2023-02-26T21:21:33.524Z,-1.78
2023-02-26T21:24:00.555Z,-1.61
2023-02-26T21:26:27.885Z,-1.58
2023-02-26T21:28:55.472Z,-1.77
2023-02-26T21:31:22.641Z,-1.66
2023-02-26T21:33:49.642Z,-1.66
2023-02-26T21:36:17.035Z,-1.65
2023-02-26T21:38:43.805Z,-1.60
2023-02-26T21:41:10.633Z,-1.74
2023-02-26T21:43:37.563Z,-1.72
2023-02-26T21:46:07.507Z,-1.67
2023-02-26T21:48:34.358Z,-1.59
2023-02-26T21:51:01.292Z,-1.78
2023-02-26T21:53:28.355Z,-1.74
2023-02-26T21:55:57.017Z,-1.88
2023-02-26T21:58:25.699Z,-1.93
2023-02-26T22:00:53.718Z,-1.95
2023-02-26T22:03:20.583Z,-2.21
2023-02-26T22:05:51.169Z,-2.02
2023-02-26T22:08:18.425Z,-2.08
2023-02-26T22:10:47.996Z,-1.98
2023-02-26T22:13:15.082Z,-1.91
2023-02-26T22:15:42.529Z,-1.88
2023-02-26T22:18:09.330Z,-1.71
2023-02-26T22:20:36.188Z,-1.99
2023-02-26T22:23:03.342Z,-2.00
2023-02-26T22:25:31.331Z,-1.97
2023-02-26T22:28:01.688Z,-1.95
2023-02-26T22:30:28.478Z,-2.07
2023-02-26T22:32:55.856Z,-2.03
2023-02-26T22:35:22.806Z,-2.01
2023-02-26T22:37:50.175Z,-2.03
2023-02-26T22:40:17.898Z,-2.19
2023-02-26T22:42:45.098Z,-2.19
2023-02-26T22:45:13.800Z,-2.14
2023-02-26T22:50:06.577Z,-2.21
2023-02-26T22:52:33.555Z,-2.38
2023-02-26T22:55:00.425Z,-2.36
2023-02-26T22:57:28.402Z,-2.50
2023-02-26T22:59:57.343Z,-2.56
2023-02-26T23:02:25.545Z,-2.37
2023-02-26T23:04:52.746Z,-2.52
2023-02-26T23:07:19.755Z,-2.78
2023-02-26T23:09:46.765Z,-2.74
2023-02-26T23:12:14.200Z,-2.77
2023-02-26T23:14:41.818Z,-2.58
2023-02-26T23:17:11.259Z,-2.48
2023-02-26T23:19:38.719Z,-2.50
2023-02-26T23:22:06.422Z,-2.42
2023-02-26T23:24:33.738Z,-2.62
2023-02-26T23:27:01.119Z,-2.44
2023-02-26T23:29:27.917Z,-2.56
2023-02-26T23:31:54.775Z,-2.61
2023-02-26T23:34:21.780Z,-2.44
2023-02-26T23:36:48.642Z,-2.60
2023-02-26T23:39:15.765Z,-2.65
2023-02-26T23:41:42.559Z,-2.39
2023-02-26T23:44:09.213Z,-2.66
2023-02-26T23:46:36.247Z,-2.56
2023-02-26T23:49:03.398Z,-2.39
2023-02-26T23:51:30.371Z,-2.81
2023-02-26T23:53:57.061Z,-2.92
2023-02-26T23:56:23.951Z,-2.87
2023-02-26T23:58:52.127Z,-2.87
